createdAt,value
2023-01-17T00:00:57.024Z,94245.03
2023-01-17T00:04:00.975Z,94231.66
2023-01-17T00:07:05.047Z,94253.19
2023-01-17T00:09:53.311Z,94230.09
2023-01-17T00:12:39.370Z,94241.91
2023-01-17T00:15:25.957Z,94239.00
2023-01-17T00:18:11.672Z,94251.59
2023-01-17T00:21:15.797Z,94251.59
2023-01-17T00:24:19.510Z,94262.63
2023-01-17T00:27:13.846Z,94261.56
2023-01-17T00:29:59.506Z,94271.03
2023-01-17T00:32:44.709Z,94272.56
2023-01-17T00:35:32.116Z,94269.94
2023-01-17T00:38:20.223Z,94296.19
2023-01-17T00:41:13.747Z,94295.66
2023-01-17T00:44:18.965Z,94301.44
2023-01-17T00:47:24.373Z,94301.44
2023-01-17T00:50:29.160Z,94299.31
2023-01-17T00:53:32.873Z,94304.84
2023-01-17T00:56:36.665Z,94310.91
2023-01-17T00:59:40.643Z,94309.81
2023-01-17T01:02:45.739Z,94313.75
2023-01-17T01:05:49.486Z,94317.97
2023-01-17T01:08:53.486Z,94321.38
2023-01-17T01:11:57.251Z,94329.78
2023-01-17T01:15:01.236Z,94330.31
2023-01-17T01:18:05.218Z,94340.56
2023-01-17T01:21:09.055Z,94334.50
2023-01-17T01:24:13.165Z,94330.56
2023-01-17T01:27:17.996Z,94348.41
2023-01-17T01:30:22.871Z,94340.78
2023-01-17T01:33:19.068Z,94349.72
2023-01-17T01:36:08.072Z,94339.22
2023-01-17T01:38:54.631Z,94349.72
2023-01-17T01:41:40.035Z,94356.28
2023-01-17T01:44:49.779Z,94359.16
2023-01-17T01:47:40.764Z,94354.97
2023-01-17T01:50:28.031Z,94356.00
2023-01-17T01:53:13.677Z,94359.72
2023-01-17T01:55:59.507Z,94358.13
2023-01-17T01:58:49.005Z,94357.06
2023-01-17T02:01:34.631Z,94354.69
2023-01-17T02:04:20.753Z,94357.88
2023-01-17T02:07:14.680Z,94364.69
2023-01-17T02:10:01.059Z,94367.03
2023-01-17T02:12:47.199Z,94365.47
2023-01-17T02:16:18.120Z,94368.09
2023-01-17T02:19:15.842Z,94376.47
2023-01-17T02:22:40.293Z,94377.00
2023-01-17T02:25:50.744Z,94383.03
2023-01-17T02:29:13.409Z,94381.72
2023-01-17T02:32:07.404Z,94386.69
2023-01-17T02:35:05.653Z,94392.19
2023-01-17T02:38:00.547Z,94396.91
2023-01-17T02:40:52.684Z,94387.47
2023-01-17T02:43:39.592Z,94403.47
2023-01-17T02:46:26.938Z,94408.16
2023-01-17T02:49:12.645Z,94410.00
2023-01-17T02:52:24.049Z,94399.75
2023-01-17T02:55:36.884Z,94402.91
2023-01-17T02:58:41.151Z,94394.22
2023-01-17T03:01:46.373Z,94397.34
2023-01-17T03:04:41.052Z,94396.28
2023-01-17T03:07:28.818Z,94400.16
2023-01-17T03:10:16.886Z,94398.84
2023-01-17T03:13:03.254Z,94428.13
2023-01-17T03:15:49.611Z,94420.25
2023-01-17T03:18:35.238Z,94416.31
2023-01-17T03:21:21.582Z,94416.59
2023-01-17T03:24:07.457Z,94421.81
2023-01-17T03:26:52.904Z,94419.97
2023-01-17T03:29:38.462Z,94431.25
2023-01-17T03:32:23.806Z,94432.81
2023-01-17T03:35:09.491Z,94436.75
2023-01-17T03:37:55.242Z,94442.78
2023-01-17T03:40:41.660Z,94441.50
2023-01-17T03:43:26.985Z,94448.56
2023-01-17T03:46:27.477Z,94448.31
2023-01-17T03:49:13.086Z,94459.56
2023-01-17T03:51:59.099Z,94455.88
2023-01-17T03:54:44.363Z,94465.03
2023-01-17T03:57:29.772Z,94466.56
2023-01-17T04:00:15.328Z,94463.66
2023-01-17T04:03:00.947Z,94475.44
2023-01-17T04:05:46.292Z,94453.44
2023-01-17T04:08:31.777Z,94459.97
2023-01-17T04:11:17.161Z,94470.41
2023-01-17T04:14:02.419Z,94471.94
2023-01-17T04:16:48.078Z,94463.81
2023-01-17T04:19:36.435Z,94468.25
2023-01-17T04:22:21.579Z,94472.72
2023-01-17T04:25:07.394Z,94465.38
2023-01-17T04:27:53.848Z,94463.28
2023-01-17T04:30:39.552Z,94468.53
2023-01-17T04:33:25.233Z,94459.84
2023-01-17T04:36:11.011Z,94474.53
2023-01-17T04:38:56.353Z,94470.09
2023-01-17T04:41:41.704Z,94474.81
2023-01-17T04:44:27.176Z,94470.34
2023-01-17T04:47:12.707Z,94476.13
2023-01-17T04:49:58.052Z,94487.16
2023-01-17T04:52:43.607Z,94478.28
2023-01-17T04:55:28.938Z,94478.28
2023-01-17T04:58:14.326Z,94499.22
2023-01-17T05:01:07.913Z,94478.28
2023-01-17T05:03:53.710Z,94486.63
2023-01-17T05:06:38.952Z,94481.41
2023-01-17T05:09:24.474Z,94490.59
2023-01-17T05:12:10.174Z,94494.75
2023-01-17T05:14:55.390Z,94503.63
2023-01-17T05:17:40.767Z,94504.38
2023-01-17T05:20:26.720Z,94503.88
2023-01-17T05:23:12.488Z,94498.13
2023-01-17T05:25:57.814Z,94496.00
2023-01-17T05:28:43.228Z,94500.69
2023-01-17T05:31:28.630Z,94502.47
2023-01-17T05:34:13.906Z,94515.81
2023-01-17T05:36:59.492Z,94522.91
2023-01-17T05:39:44.977Z,94517.38
2023-01-17T05:42:30.370Z,94525.47
2023-01-17T05:45:19.734Z,94531.97
2023-01-17T05:48:06.722Z,94531.97
2023-01-17T05:50:52.279Z,94531.75
2023-01-17T05:53:37.941Z,94534.13
2023-01-17T05:56:23.365Z,94539.34
2023-01-17T05:59:08.820Z,94549.03
2023-01-17T06:01:54.355Z,94563.94
2023-01-17T06:04:39.751Z,94566.56
2023-01-17T06:07:24.950Z,94564.19
2023-01-17T06:10:10.946Z,94572.03
2023-01-17T06:13:05.549Z,94573.31
2023-01-17T06:15:51.390Z,94574.09
2023-01-17T06:18:37.137Z,94566.75
2023-01-17T06:21:22.373Z,94575.09
2023-01-17T06:24:07.762Z,94584.22
2023-01-17T06:26:53.190Z,94580.53
2023-01-17T06:29:38.473Z,94584.19
2023-01-17T06:32:23.937Z,94581.03
2023-01-17T06:35:09.496Z,94583.59
2023-01-17T06:37:58.157Z,94587.50
2023-01-17T06:40:43.960Z,94599.00
2023-01-17T06:43:32.641Z,94586.63
2023-01-17T06:46:18.147Z,94589.50
2023-01-17T06:49:04.042Z,94602.84
2023-01-17T06:51:49.229Z,94604.91
2023-01-17T06:54:34.653Z,94597.00
2023-01-17T06:57:19.764Z,94600.09
2023-01-17T07:00:07.222Z,94607.41
2023-01-17T07:02:52.916Z,94611.78
2023-01-17T07:05:38.292Z,94615.13
2023-01-17T07:08:23.681Z,94622.13
2023-01-17T07:11:10.604Z,94622.28
2023-01-17T07:13:55.878Z,94631.34
2023-01-17T07:16:46.012Z,94637.00
2023-01-17T07:19:31.590Z,94631.94
2023-01-17T07:22:16.956Z,94646.25
2023-01-17T07:25:02.355Z,94637.88
2023-01-17T07:27:47.959Z,94645.66
2023-01-17T07:30:35.136Z,94640.19
2023-01-17T07:33:20.756Z,94640.66
2023-01-17T07:36:07.858Z,94651.91
2023-01-17T07:38:53.444Z,94641.94
2023-01-17T07:41:41.445Z,94643.28
2023-01-17T07:44:26.830Z,94638.59
2023-01-17T07:47:12.319Z,94630.53
2023-01-17T07:49:57.572Z,94629.25
2023-01-17T07:52:43.037Z,94614.13
2023-01-17T07:55:28.591Z,94616.19
2023-01-17T07:58:15.040Z,94609.94
2023-01-17T08:01:22.698Z,94612.00
2023-01-17T08:04:09.411Z,94612.53
2023-01-17T08:06:55.223Z,94610.50
2023-01-17T08:09:41.824Z,94616.81
2023-01-17T08:12:29.452Z,94605.88
2023-01-17T08:15:16.339Z,94600.66
2023-01-17T08:18:01.669Z,94606.97
2023-01-17T08:20:47.116Z,94625.81
2023-01-17T08:23:32.530Z,94629.00
2023-01-17T08:26:22.714Z,94623.25
2023-01-17T08:29:09.297Z,94625.41
2023-01-17T08:31:54.808Z,94631.16
2023-01-17T08:34:40.696Z,94631.00
2023-01-17T08:37:26.073Z,94626.84
2023-01-17T08:40:12.116Z,94635.31
2023-01-17T08:42:59.433Z,94626.25
2023-01-17T08:45:47.112Z,94629.16
2023-01-17T08:48:32.249Z,94631.06
2023-01-17T08:51:17.589Z,94645.78
2023-01-17T08:54:05.186Z,94629.09
2023-01-17T08:56:52.846Z,94639.59
2023-01-17T08:59:38.091Z,94628.91
2023-01-17T09:03:53.138Z,94626.78
2023-01-17T09:18:38.369Z,94616.38
2023-01-17T09:21:24.586Z,94609.09
2023-01-17T09:24:10.026Z,94617.41
2023-01-17T09:26:55.861Z,94626.38
2023-01-17T09:29:41.180Z,94637.44
2023-01-17T09:32:26.483Z,94641.16
2023-01-17T09:35:13.620Z,94643.56
2023-01-17T09:37:59.126Z,94640.47
2023-01-17T09:40:56.509Z,94631.88
2023-01-17T09:44:09.443Z,94634.56
2023-01-17T09:47:00.091Z,94633.56
2023-01-17T09:49:47.129Z,94624.97
2023-01-17T09:52:33.496Z,94626.56
2023-01-17T09:55:20.229Z,94621.31
2023-01-17T09:58:17.906Z,94624.72
2023-01-17T10:01:19.176Z,94614.81
2023-01-17T10:04:38.318Z,94610.63
2023-01-17T10:07:49.297Z,94615.69
2023-01-17T10:10:45.630Z,94619.63
2023-01-17T10:14:03.959Z,94616.00
2023-01-17T10:17:04.824Z,94613.63
2023-01-17T10:20:34.175Z,94610.28
2023-01-17T10:23:51.928Z,94614.81
2023-01-17T10:26:38.356Z,94615.38
2023-01-17T10:29:28.515Z,94613.31
2023-01-17T10:32:14.887Z,94608.13
2023-01-17T10:35:11.524Z,94607.38
2023-01-17T10:38:03.718Z,94606.34
2023-01-17T10:40:55.335Z,94605.28
2023-01-17T10:43:56.001Z,94602.69
2023-01-17T10:46:53.658Z,94607.41
2023-01-17T10:49:45.118Z,94603.22
2023-01-17T10:52:33.328Z,94596.97
2023-01-17T10:55:27.249Z,94586.00
2023-01-17T10:58:31.783Z,94592.06
2023-01-17T11:01:20.263Z,94576.13
2023-01-17T11:04:33.040Z,94573.50
2023-01-17T11:07:26.672Z,94572.47
2023-01-17T11:10:47.273Z,94564.69
2023-01-17T11:13:36.202Z,94565.75
2023-01-17T11:16:26.727Z,94566.31
2023-01-17T11:19:36.143Z,94552.19
2023-01-17T11:22:21.374Z,94540.44
2023-01-17T11:25:07.235Z,94526.56
2023-01-17T11:28:26.319Z,94519.47
2023-01-17T11:31:16.616Z,94516.34
2023-01-17T11:34:18.448Z,94515.53
2023-01-17T11:37:19.277Z,94512.91
2023-01-17T11:40:18.840Z,94511.84
2023-01-17T11:43:18.757Z,94511.59
2023-01-17T11:46:20.520Z,94510.81
2023-01-17T11:49:21.933Z,94506.38
2023-01-17T11:52:17.251Z,94509.78
2023-01-17T11:55:02.720Z,94513.72
2023-01-17T11:57:50.472Z,94515.03
2023-01-17T12:00:46.913Z,94509.00
2023-01-17T12:03:51.486Z,94512.41
2023-01-17T12:06:57.671Z,94512.66
2023-01-17T12:10:09.988Z,94503.75
2023-01-17T12:13:41.307Z,94500.59
2023-01-17T12:16:45.455Z,94493.75
2023-01-17T12:19:34.346Z,94488.50
2023-01-17T12:22:20.021Z,94479.34
2023-01-17T12:25:23.669Z,94461.47
2023-01-17T12:28:12.163Z,94462.53
2023-01-17T12:31:18.191Z,94466.22
2023-01-17T12:34:27.083Z,94473.53
2023-01-17T12:37:30.537Z,94482.47
2023-01-17T12:40:42.820Z,94489.56
2023-01-17T12:43:37.383Z,94489.81
2023-01-17T12:46:44.145Z,94500.31
2023-01-17T12:49:40.696Z,94499.50
2023-01-17T12:52:51.243Z,94507.66
2023-01-17T12:56:16.676Z,94500.03
2023-01-17T12:59:26.933Z,94497.16
2023-01-17T13:02:34.533Z,94492.41
2023-01-17T13:05:46.724Z,94488.47
2023-01-17T13:08:43.835Z,94491.09
2023-01-17T13:11:49.922Z,94490.06
2023-01-17T13:14:35.922Z,94488.25
2023-01-17T13:17:34.991Z,94496.13
2023-01-17T13:20:33.122Z,94493.75
2023-01-17T13:23:38.010Z,94494.53
2023-01-17T13:26:33.793Z,94488.78
2023-01-17T13:29:56.211Z,94483.53
2023-01-17T13:33:01.618Z,94489.28
2023-01-17T13:36:08.322Z,94485.34
2023-01-17T13:39:12.711Z,94485.88
2023-01-17T13:42:23.093Z,94488.25
2023-01-17T13:45:17.627Z,94478.28
2023-01-17T13:48:11.990Z,94473.53
2023-01-17T13:51:17.015Z,94467.53
2023-01-17T13:54:07.492Z,94459.91
2023-01-17T13:57:27.323Z,94451.50
2023-01-17T14:00:21.544Z,94458.88
2023-01-17T14:03:11.644Z,94460.44
2023-01-17T14:05:57.624Z,94449.16
2023-01-17T14:08:45.487Z,94445.22
2023-01-17T14:11:55.154Z,94439.47
2023-01-17T14:14:41.019Z,94441.03
2023-01-17T14:17:34.203Z,94438.41
2023-01-17T14:20:25.862Z,94440.50
2023-01-17T14:23:33.042Z,94428.69
2023-01-17T14:26:28.945Z,94437.34
2023-01-17T14:29:42.692Z,94438.66
2023-01-17T14:32:32.611Z,94431.56
2023-01-17T14:35:23.108Z,94426.31
2023-01-17T14:38:31.617Z,94428.91
2023-01-17T14:41:23.591Z,94423.16
2023-01-17T14:44:14.874Z,94426.56
2023-01-17T14:47:00.662Z,94424.72
2023-01-17T14:49:46.066Z,94425.75
2023-01-17T14:52:31.577Z,94419.47
2023-01-17T14:55:20.305Z,94421.28
2023-01-17T14:58:06.316Z,94417.06
2023-01-17T15:00:56.483Z,94409.19
2023-01-17T15:03:48.974Z,94409.41
2023-01-17T15:06:40.738Z,94408.88
2023-01-17T15:09:29.930Z,94407.53
2023-01-17T15:12:15.387Z,94403.06
2023-01-17T15:15:01.316Z,94404.09
2023-01-17T15:17:46.962Z,94405.09
2023-01-17T15:20:32.332Z,94393.03
2023-01-17T15:23:21.308Z,94384.06
2023-01-17T15:26:08.279Z,94387.22
2023-01-17T15:29:03.953Z,94390.31
2023-01-17T15:31:56.169Z,94380.56
2023-01-17T15:34:46.875Z,94371.59
2023-01-17T15:37:39.830Z,94370.75
2023-01-17T15:40:26.667Z,94366.75
2023-01-17T15:43:20.113Z,94352.78
2023-01-17T15:46:05.754Z,94357.16
2023-01-17T15:48:51.926Z,94359.44
2023-01-17T15:51:39.032Z,94363.31
2023-01-17T15:54:41.664Z,94361.16
2023-01-17T15:57:28.561Z,94359.53
2023-01-17T16:00:15.856Z,94362.34
2023-01-17T16:03:01.389Z,94359.94
2023-01-17T16:05:47.663Z,94350.47
2023-01-17T16:08:38.613Z,94354.09
2023-01-17T16:11:24.387Z,94355.28
2023-01-17T16:14:10.303Z,94354.72
2023-01-17T16:16:55.724Z,94353.06
2023-01-17T16:19:41.787Z,94353.53
2023-01-17T16:22:27.294Z,94338.03
2023-01-17T16:25:15.120Z,94344.00
2023-01-17T16:28:01.178Z,94346.03
2023-01-17T16:30:48.488Z,94342.81
2023-01-17T16:33:33.833Z,94339.59
2023-01-17T16:36:21.238Z,94333.78
2023-01-17T16:39:07.442Z,94328.72
2023-01-17T16:42:00.988Z,94335.16
2023-01-17T16:44:46.202Z,94333.78
2023-01-17T16:47:31.550Z,94332.91
2023-01-17T16:50:23.198Z,94336.97
2023-01-17T16:53:08.705Z,94328.53
2023-01-17T16:55:59.669Z,94331.53
2023-01-17T16:58:45.452Z,94327.28
2023-01-17T17:01:31.050Z,94335.50
2023-01-17T17:04:16.303Z,94331.50
2023-01-17T17:07:01.734Z,94320.44
2023-01-17T17:09:47.623Z,94312.31
2023-01-17T17:12:33.291Z,94309.88
2023-01-17T17:15:19.115Z,94318.66
2023-01-17T17:18:04.630Z,94319.03
2023-01-17T17:20:49.943Z,94309.31
2023-01-17T17:23:35.303Z,94304.56
2023-01-17T17:26:20.620Z,94297.25
2023-01-17T17:29:10.555Z,94295.09
2023-01-17T17:31:55.763Z,94308.38
2023-01-17T17:34:41.294Z,94304.44
2023-01-17T17:37:29.087Z,94302.31
2023-01-17T17:40:14.874Z,94302.78
2023-01-17T17:43:00.429Z,94299.84
2023-01-17T17:45:45.756Z,94296.69
2023-01-17T17:48:31.143Z,94292.72
2023-01-17T17:51:24.050Z,94280.41
2023-01-17T17:54:11.646Z,94288.16
2023-01-17T17:56:57.273Z,94302.91
2023-01-17T17:59:42.777Z,94306.47
2023-01-17T18:02:28.199Z,94320.16
2023-01-17T18:05:13.595Z,94319.28
2023-01-17T18:08:00.758Z,94322.81
2023-01-17T18:10:46.492Z,94328.50
2023-01-17T18:13:32.598Z,94332.56
2023-01-17T18:16:27.779Z,94325.78
2023-01-17T18:19:22.336Z,94329.09
2023-01-17T18:22:08.142Z,94332.38
2023-01-17T18:24:53.700Z,94323.44
2023-01-17T18:27:39.771Z,94325.94
2023-01-17T18:30:25.442Z,94332.06
2023-01-17T18:33:10.873Z,94329.63
2023-01-17T18:35:58.760Z,94321.94
2023-01-17T18:38:46.955Z,94319.00
2023-01-17T18:41:32.309Z,94323.09
2023-01-17T18:44:21.838Z,94327.16
2023-01-17T18:47:07.649Z,94332.03
2023-01-17T18:49:53.713Z,94329.63
2023-01-17T18:52:40.789Z,94336.91
2023-01-17T18:55:26.067Z,94330.88
2023-01-17T18:58:11.448Z,94332.94
2023-01-17T19:01:06.634Z,94336.00
2023-01-17T19:03:54.671Z,94329.22
2023-01-17T19:06:46.608Z,94319.28
2023-01-17T19:09:32.247Z,94331.47
2023-01-17T19:12:19.038Z,94332.28
2023-01-17T19:15:06.931Z,94345.28
2023-01-17T19:17:52.722Z,94346.84
2023-01-17T19:20:39.104Z,94344.81
2023-01-17T19:23:24.421Z,94343.00
2023-01-17T19:26:11.223Z,94342.53
2023-01-17T19:28:58.893Z,94342.88
2023-01-17T19:31:44.775Z,94331.56
2023-01-17T19:34:30.637Z,94346.25
2023-01-17T19:37:16.242Z,94347.94
2023-01-17T19:40:01.739Z,94346.47
2023-01-17T19:42:47.640Z,94352.31
2023-01-17T19:45:33.048Z,94362.59
2023-01-17T19:48:18.209Z,94365.06
2023-01-17T19:51:09.721Z,94363.13
2023-01-17T19:53:55.310Z,94357.00
2023-01-17T19:56:40.597Z,94355.03
2023-01-17T19:59:26.014Z,94349.47
2023-01-17T20:02:11.639Z,94350.22
2023-01-17T20:04:57.044Z,94351.84
2023-01-17T20:07:43.720Z,94358.03
2023-01-17T20:10:29.693Z,94348.25
2023-01-17T20:13:15.493Z,94353.53
2023-01-17T20:16:06.272Z,94353.03
2023-01-17T20:18:52.203Z,94344.44
2023-01-17T20:21:38.098Z,94347.84
2023-01-17T20:24:24.183Z,94347.63
2023-01-17T20:27:09.527Z,94346.34
2023-01-17T20:29:54.856Z,94342.25
2023-01-17T20:32:40.242Z,94339.50
2023-01-17T20:35:25.936Z,94331.19
2023-01-17T20:38:11.941Z,94338.31
2023-01-17T20:40:57.267Z,94335.22
2023-01-17T20:43:51.205Z,94342.56
2023-01-17T20:46:40.636Z,94336.34
2023-01-17T20:49:26.286Z,94326.44
2023-01-17T20:52:14.567Z,94322.03
2023-01-17T20:55:00.460Z,94319.19
2023-01-17T20:57:45.858Z,94320.19
2023-01-17T21:00:31.391Z,94325.41
2023-01-17T21:03:16.611Z,94323.06
2023-01-17T21:06:09.836Z,94323.06
2023-01-17T21:08:55.418Z,94322.50
2023-01-17T21:11:40.846Z,94326.94
2023-01-17T21:14:29.616Z,94314.69
2023-01-17T21:17:16.481Z,94317.06
2023-01-17T21:20:06.666Z,94323.06
2023-01-17T21:22:52.303Z,94321.00
2023-01-17T21:25:38.583Z,94327.25
2023-01-17T21:28:26.229Z,94324.38
2023-01-17T21:31:25.017Z,94316.56
2023-01-17T21:34:11.652Z,94312.16
2023-01-17T21:36:57.444Z,94313.72
2023-01-17T21:39:43.062Z,94319.75
2023-01-17T21:42:28.540Z,94324.94
2023-01-17T21:45:13.959Z,94313.72
2023-01-17T21:47:59.454Z,94317.13
2023-01-17T21:50:45.363Z,94311.91
2023-01-17T21:53:33.082Z,94306.72
2023-01-17T21:56:37.255Z,94301.50
2023-01-17T21:59:22.604Z,94300.47
2023-01-17T22:02:10.496Z,94298.63
2023-01-17T22:04:56.318Z,94304.63
2023-01-17T22:08:01.457Z,94307.25
2023-01-17T22:10:46.998Z,94305.44
2023-01-17T22:13:32.711Z,94298.63
2023-01-17T22:16:20.537Z,94299.41
2023-01-17T22:19:05.842Z,94306.47
2023-01-17T22:21:51.362Z,94319.75
2023-01-17T22:24:37.796Z,94314.53
2023-01-17T22:27:23.090Z,94314.53
2023-01-17T22:30:09.234Z,94316.31
2023-01-17T22:32:58.372Z,94318.94
2023-01-17T22:35:44.108Z,94326.44
2023-01-17T22:38:29.947Z,94332.69
2023-01-17T22:41:19.943Z,94323.31
2023-01-17T22:44:05.545Z,94316.50
2023-01-17T22:46:51.129Z,94324.31
2023-01-17T22:49:36.416Z,94318.31
2023-01-17T22:52:21.795Z,94315.94
2023-01-17T22:55:07.402Z,94318.03
2023-01-17T22:57:53.055Z,94318.22
2023-01-17T23:00:38.322Z,94308.84
2023-01-17T23:03:24.378Z,94313.28
2023-01-17T23:06:13.925Z,94308.06
2023-01-17T23:09:02.643Z,94312.25
2023-01-17T23:11:52.946Z,94312.25
2023-01-17T23:14:57.125Z,94311.22
2023-01-17T23:18:00.831Z,94315.41
2023-01-17T23:20:46.357Z,94316.97
2023-01-17T23:23:32.162Z,94306.53
2023-01-17T23:26:17.806Z,94306.31
2023-01-17T23:29:03.456Z,94322.50
2023-01-17T23:31:48.983Z,94328.50
2023-01-17T23:34:34.421Z,94332.69
2023-01-17T23:37:20.014Z,94332.22
2023-01-17T23:40:06.171Z,94331.19
2023-01-17T23:43:10.128Z,94336.41
2023-01-17T23:45:55.513Z,94336.16
2023-01-17T23:48:40.821Z,94333.78
2023-01-17T23:51:26.047Z,94326.22
2023-01-17T23:54:11.291Z,94333.78
2023-01-17T23:56:56.671Z,94328.59
2023-01-17T23:59:42.071Z,94323.94
